Tiempo atmosférico en la estación meteorológica de Quinto, Zaragoza (205 m.)



Fecha
DESCASC
Temp. máxima en grados centígrados (hora)
DESCASC
Temp. mínima en grados centígrados (hora)
DESCASC
Temp. media en grados centígrados
DESCASC
Racha de viento máxima en m/sg (hora)
DESCASC
Velocidad máxima media en intervalos de 10 minutos(hora)
DESCASC
Precipitaciones diarias en mm
DESCASC
Precipitaciones de 00:00 a 06:00 en mm
DESCASC
Precipitaciones de 06:00 a 12:00 en mm
DESCASC
Precipitaciones de 12:00 a 18:00 en mm
DESCASC
Precipitaciones de 18:00 a 24:00 en mm
DESCASC
13-10-2019 30.8 (16:20) 14.8 (08:30) 22.8 11.11 (18:20) 6.67 (20:00) 0 0 0 0 0
12-10-2019 30.5 (15:50) 14.9 (08:20) 22.7 11.67 (16:40) 5.83 (17:50) 0 0 0 0 0
10-10-2019 24.8 (17:30) 14 (00:00) 19.4 11.67 (03:00) 6.11 (03:00) 0 0 0 0 0
09-10-2019 25.4 (16:00) 12.7 (00:00) 19 13.33 (17:00) 7.5 (14:50) 0 0 0 0 0
08-10-2019 30.4 (17:30) 11.6 (00:00) 21 4.72 (21:00) 3.33 (03:50) 0 0 0 0 0
07-10-2019 26.5 (17:30) 15.5 (00:00) 21 16.11 (05:00) 10.28 (03:40) 0 0 0 0 0
06-10-2019 25.4 (16:40) 13.7 (00:00) 19.5 18.33 (12:00) 9.17 (23:59) 0 0 0 0 0
05-10-2019 27 (17:10) 14.9 (06:30) 20.9 10.83 (12:00) 6.39 (12:00) 0 0 0 0 0
04-10-2019 -- (--) -- (--) -- -- (--) -- (--) -- -- 0 0 0
03-10-2019 27.1 (17:40) 14.8 (00:00) 21 12.78 (04:20) 8.06 (04:20) 0 0 0 0 0
02-10-2019 23.8 (15:50) 15.4 (00:00) 19.6 18.89 (14:20) 12.78 (15:00) 0 0 0 0 0
01-10-2019 30.4 (16:00) 13.2 (00:00) 21.8 10.28 (23:20) 6.67 (23:20) 0 0 0 0 0
30-09-2019 32.5 (18:00) 14.6 (00:00) 23.6 4.72 (21:50) 3.06 (04:00) 0 0 0 0 0
29-09-2019 32.3 (17:50) 14.4 (00:00) 23.3 4.17 (18:00) 2.78 (18:00) 0 0 0 0 0
28-09-2019 30.2 (17:00) 14.6 (00:00) 22.4 6.67 (12:00) 3.89 (11:50) 0 0 0 0 0
27-09-2019 31.7 (18:50) 13.5 (00:00) 22.6 7.5 (14:00) 5.28 (11:40) 0 0 0 0 0
26-09-2019 31.6 (18:30) 12.2 (00:00) 21.9 5.83 (16:00) 3.89 (00:40) 0 0 0 0 0
25-09-2019 25.5 (16:30) 16.8 (00:00) 21.1 12.5 (14:50) 8.06 (14:50) 0 0 0 0 0
24-09-2019 32.2 (16:30) 11.5 (00:00) 21.9 12.78 (15:10) 7.22 (14:30) 0 0 0 0 0
23-09-2019 27.3 (17:40) 10.5 (00:00) 18.9 6.39 (18:00) 3.89 (18:00) 0 0 0 0 0
22-09-2019 27.4 (11:40) 16.5 (00:00) 21.9 13.89 (16:20) 8.61 (16:20) 0.6 0 0.6 0 0
21-09-2019 30.6 (17:30) 18.6 (00:00) 24.6 9.72 (00:10) 5.28 (00:10) 0.4 0.2 0.2 0 0
20-09-2019 30.7 (16:10) 17.6 (00:00) 24.2 11.94 (19:10) 7.5 (19:10) 0.2 0.2 0 0 0
19-09-2019 31.7 (17:40) 16.9 (00:00) 24.3 5.83 (23:59) 3.89 (20:20) 0 0 0 0 0
18-09-2019 30.2 (16:40) 16.1 (00:00) 23.2 10.28 (00:20) 6.67 (00:10) 0 0 0 0 0
17-09-2019 32.9 (17:30) 15.3 (00:00) 24.1 13.61 (23:20) 9.17 (23:40) 0 0 0 0 0

Gráficas

Temp. máximas Temp. mínimas Temp. medias Precipitaciones Rachas de viento máximas Velocidades máximas media en intervalos de 10 minutos

Datos horarios

Fecha y hora oficial Temperatura (ºC) Velocidad del viento (km/h) Dirección del viento Racha (km/h) Dirección de racha Precipitación (mm) Presión (hPa) Tendencia (hPa) Humedad (%)
2019-10-16 23:00:00 13.1 4 Este 9 Sudeste 0 -- -- 66
2019-10-16 22:00:00 14.2 5 Sur 8 Sur 0 -- -- 64
2019-10-16 21:00:00 16.5 3 Nordeste 12 Norte 0 -- -- 56
2019-10-16 20:00:00 19.4 3 Este 10 Sudeste 0 -- -- 43
2019-10-16 19:00:00 22.9 4 Este 9 Este 0 -- -- 35
2019-10-16 18:00:00 24.2 4 Este 10 Este 0 -- -- 32
2019-10-16 17:00:00 23.8 5 Nordeste 12 Norte 0 -- -- 33
2019-10-16 16:00:00 23.2 5 Nordeste 12 Nordeste 0 -- -- 34
2019-10-16 15:00:00 22.7 4 Norte 13 Este 0 -- -- 36
2019-10-16 14:00:00 21 7 Norte 13 Norte 0 -- -- 39
2019-10-16 13:00:00 20.6 5 Nordeste 13 Norte 0 -- -- 41
2019-10-16 12:00:00 17.6 5 Nordeste 8 Este 0 -- -- 52
2019-10-16 11:00:00 14.9 5 Este 10 Este 0 -- -- 56
2019-10-16 10:00:00 11.3 4 Este 6 Sudeste 0 -- -- 70
2019-10-16 09:00:00 7.5 0 Calma 6 Sudoeste 0 -- -- 89
2019-10-16 08:00:00 6.5 3 Sudoeste 6 Sudoeste 0 -- -- 87
2019-10-16 07:00:00 7.2 4 Oeste 8 Sudoeste 0 -- -- 87
2019-10-16 06:00:00 8.4 0 Calma 8 Sudeste 0 -- -- 83
2019-10-16 05:00:00 8.3 4 Sudeste 6 Sudeste 0 -- -- 83
2019-10-16 04:00:00 8.4 2 Nordeste 5 Noroeste 0 -- -- 82
2019-10-16 03:00:00 8.5 4 Norte 9 Sudoeste 0 -- -- 81
2019-10-16 02:00:00 8.5 7 Sur 12 Sudoeste 0 -- -- 76
2019-10-16 01:00:00 9.6 2 Oeste 11 Sudoeste 0 -- -- 73
2019-10-16 00:00:00 11.1 10 Sudoeste 14 Sudoeste 0 -- -- 65
2019-10-15 23:00:00 11.3 3 Sudeste 12 Este 0 -- -- 68
2019-10-15 22:00:00 12 5 Sudoeste 14 Sudoeste 0 -- -- 62
2019-10-15 21:00:00 13 4 Sudeste 10 Sudoeste 0 -- -- 64
2019-10-15 20:00:00 15.7 3 Sudoeste 8 Noroeste 0 -- -- 55
2019-10-15 19:00:00 19 0 Calma 16 Noroeste 0 -- -- 40
2019-10-15 18:00:00 19.5 12 Noroeste 27 Noroeste 0 -- -- 35
2019-10-15 17:00:00 19.9 15 Noroeste 31 Noroeste 0 -- -- 35
2019-10-15 16:00:00 19.9 12 Noroeste 28 Oeste 0 -- -- 33
2019-10-15 15:00:00 19.2 17 Noroeste 33 Noroeste 0 -- -- 37
2019-10-15 14:00:00 19.3 15 Noroeste 33 Oeste 0 -- -- 39
2019-10-15 13:00:00 17.7 12 Noroeste 32 Oeste 0 -- -- 42
2019-10-15 12:00:00 16.5 20 Oeste 34 Oeste 0 -- -- 47
2019-10-15 11:00:00 15.2 21 Oeste 36 Oeste 0 -- -- 51
2019-10-15 10:00:00 13.4 15 Oeste 25 Oeste 0 -- -- 57
2019-10-15 09:00:00 11.1 14 Noroeste 25 Oeste 0 -- -- 64
2019-10-15 08:00:00 11.2 19 Oeste 27 Oeste 0 -- -- 63
2019-10-15 07:00:00 11.9 8 Noroeste 23 Noroeste 0 -- -- 61
2019-10-15 06:00:00 11.9 5 Oeste 15 Oeste 0 -- -- 62
2019-10-15 05:00:00 12.4 8 Oeste 18 Oeste 0 -- -- 63
2019-10-15 04:00:00 12.3 13 Noroeste 27 Oeste 0 -- -- 66
2019-10-15 03:00:00 13.5 22 Oeste 45 Oeste 0 -- -- 62
2019-10-15 02:00:00 14.1 31 Oeste 46 Oeste 0 -- -- 61
2019-10-15 01:00:00 14.8 13 Oeste 48 Sudoeste 0 -- -- 63
2019-10-15 00:00:00 15 11 Noroeste 25 Noroeste 0 -- -- 63
2019-10-14 23:00:00 15.1 17 Noroeste 43 Oeste 0 -- -- 60
2019-10-14 22:00:00 16.2 31 Oeste 50 Oeste 0 -- -- 62
2019-10-14 21:00:00 17 4 Sur 10 Este 0 -- -- 84
2019-10-14 20:00:00 18.2 5 Este 9 Este 0 -- -- 84
2019-10-14 19:00:00 19.5 3 Norte 23 Oeste 1 -- -- 81
2019-10-14 18:00:00 20.6 16 Oeste 29 Este 3.6 -- -- 75
2019-10-14 17:00:00 23.6 18 Este 43 Sudeste 0 -- -- 63
2019-10-14 16:00:00 23.9 26 Sudeste 42 Este 0 -- -- 47
2019-10-14 15:00:00 21.6 12 Este 23 Este 0 -- -- 79
2019-10-14 14:00:00 21.2 5 Nordeste 20 Nordeste 0 -- -- 79
2019-10-14 13:00:00 20.3 2 Oeste 16 Noroeste 0 -- -- 87
2019-10-14 12:00:00 20.6 8 Noroeste 17 Este 0.4 -- -- 83
2019-10-14 11:00:00 21.6 8 Sudeste 26 Sudeste 0 -- -- 72
2019-10-14 10:00:00 19.9 10 Este 22 Este 0 -- -- 80
2019-10-14 09:00:00 18.6 12 Este 27 Este 0 -- -- 83
2019-10-14 08:00:00 17.7 14 Este 32 Este 0 -- -- 85
2019-10-14 07:00:00 17.8 17 Este 31 Este 0 -- -- 85
2019-10-14 06:00:00 17.9 14 Este 30 Este 0 -- -- 85
2019-10-14 05:00:00 17.8 12 Este 25 Este 0 -- -- 84
2019-10-14 04:00:00 18.3 7 Este 19 Este 0 -- -- 83
2019-10-14 03:00:00 19.1 13 Este 27 Nordeste 0 -- -- 81
2019-10-14 02:00:00 19.3 9 Este 16 Este 0 -- -- 79
2019-10-14 01:00:00 19.7 6 Este 18 Este 0 -- -- 77
2019-10-14 00:00:00 20.2 9 Este 19 Este 0 -- -- 76
2019-10-13 23:00:00 21.4 12 Sudeste 29 Este 0 -- -- 71
2019-10-13 22:00:00 22.2 15 Este 30 Este 0 -- -- 68
2019-10-13 21:00:00 22.9 20 Este 35 Este 0 -- -- 65
2019-10-13 20:00:00 23.8 24 Este 39 Este 0 -- -- 64
2019-10-13 19:00:00 26 15 Este 40 Este 0 -- -- 55
2019-10-13 18:00:00 28.4 19 Este 37 Este 0 -- -- 47
2019-10-13 17:00:00 30.3 16 Este 28 Este 0 -- -- 40
2019-10-13 16:00:00 30.7 14 Este 26 Este 0 -- -- 37
2019-10-13 15:00:00 30.1 8 Este 18 Nordeste 0 -- -- 40
2019-10-13 14:00:00 28.1 8 Norte 18 Noroeste 0 -- -- 44
2019-10-13 13:00:00 27.2 8 Este 15 Sudeste 0 -- -- 46
2019-10-13 12:00:00 24.4 9 Sudeste 15 Este 0 -- -- 61
2019-10-13 11:00:00 22 8 Sudeste 12 Sudeste 0 -- -- 72
2019-10-13 10:00:00 19 4 Sur 8 Sudoeste 0 -- -- 81
2019-10-13 09:00:00 15.4 4 Sudoeste 11 Sudoeste 0 -- -- 91
2019-10-13 08:00:00 15.6 6 Sudoeste 12 Sudeste 0 -- -- 86
2019-10-13 07:00:00 17.3 8 Sudeste 17 Este 0 -- -- 85
2019-10-13 06:00:00 18.3 12 Este 18 Este 0 -- -- 81
2019-10-13 05:00:00 18.6 6 Sudeste 18 Este 0 -- -- 80
2019-10-13 04:00:00 18.6 7 Este 17 Sudeste 0 -- -- 81
2019-10-13 03:00:00 18.7 8 Este 18 Este 0 -- -- 80
2019-10-13 02:00:00 19.5 4 Nordeste 16 Oeste 0 -- -- 78
2019-10-13 01:00:00 20.2 10 Este 17 Este 0 -- -- 76
2019-10-13 00:00:00 20.6 3 Nordeste 19 Este 0 -- -- 72
2019-10-12 23:00:00 21 9 Este 25 Este 0 -- -- 71
2019-10-12 22:00:00 21.6 13 Este 22 Este 0 -- -- 69
2019-10-12 21:00:00 22.2 11 Este 31 Este 0 -- -- 67
2019-10-12 20:00:00 23.4 16 Este 38 Este 0 -- -- 63
2019-10-12 19:00:00 25 21 Este 36 Este 0 -- -- 58
2019-10-12 18:00:00 28.5 20 Este 36 Este 0 -- -- 49
2019-10-12 17:00:00 29.5 19 Este 42 Este 0 -- -- 46
2019-10-12 16:00:00 30.3 16 Este 29 Este 0 -- -- 41
2019-10-12 15:00:00 28.7 4 Norte 13 Nordeste 0 -- -- 43
2019-10-12 14:00:00 26.5 5 Oeste 16 Oeste 0 -- -- 51
2019-10-12 13:00:00 25.7 5 Sudeste 14 Sudeste 0 -- -- 57
2019-10-12 12:00:00 23.9 7 Sudeste 17 Sudeste 0 -- -- 64
2019-10-12 11:00:00 22 6 Este 12 Este 0 -- -- 72
2019-10-12 10:00:00 18.2 3 Sudoeste 10 Sudoeste 0 -- -- 85
2019-10-12 09:00:00 16.2 9 Sudoeste 17 Este 0 -- -- 88
2019-10-12 08:00:00 15.3 2 Oeste 12 Sudoeste 0 -- -- 90
2019-10-12 07:00:00 15.3 8 Sudoeste 14 Sudoeste 0 -- -- 89
2019-10-12 06:00:00 16.5 0 Calma 5 Norte 0 -- -- 87
2019-10-12 05:00:00 16.7 2 Sudoeste 11 Sur 0 -- -- 86
2019-10-12 04:00:00 17.6 3 Este 10 Este 0 -- -- 86
2019-10-12 03:00:00 18.1 5 Sudeste 7 Sudeste 0 -- -- 85
2019-10-12 02:00:00 19.1 5 Este 15 Este 0 -- -- 83
2019-10-12 01:00:00 19.6 3 Nordeste 12 Este 0 -- -- 81
2019-10-12 00:00:00 20.4 6 Este 18 Este 0 -- -- 78
2019-10-11 23:00:00 21.1 9 Sudeste 18 Este 0 -- -- 76
2019-10-11 22:00:00 22 10 Este 22 Este 0 -- -- 73
2019-10-11 21:00:00 23.3 11 Este 24 Este 0 -- -- 68
2019-10-11 20:00:00 25.5 12 Este 22 Este 0 -- -- 58
2019-10-11 19:00:00 27.6 10 Este 24 Este 0 -- -- 50
2019-10-11 18:00:00 29 5 Sudeste 12 Este 0 -- -- 43
2019-10-11 17:00:00 28.6 9 Sudeste 16 Sudeste 0 -- -- 44
2019-10-11 16:00:00 27.6 5 Sudeste 13 Sudeste 0 -- -- 46
2019-10-11 15:00:00 26.1 8 Sudeste 16 Este 0 -- -- 49
2019-10-11 14:00:00 24.6 6 Sudeste 15 Este 0 -- -- 53
2019-10-11 13:00:00 22.4 5 Sudeste 12 Sudeste 0 -- -- 59
2019-10-11 12:00:00 20.4 6 Sudeste 13 Este 0 -- -- 66
2019-10-11 11:00:00 17.6 7 Sudeste 13 Este 0 -- -- 74
2019-10-11 10:00:00 16.5 6 Este 11 Este 0 -- -- 77
2019-10-11 09:00:00 15.4 3 Este 9 Sudeste 0 -- -- 80
2019-10-11 08:00:00 15.1 4 Sudeste 8 Sudeste 0 -- -- 81
2019-10-11 07:00:00 14.3 3 Este 6 Sudeste 0 -- -- 80
2019-10-11 06:00:00 14.2 0 Calma 9 Sur 0 -- -- 79
2019-10-11 05:00:00 13.2 8 Sudoeste 12 Sudoeste 0 -- -- 80
2019-10-11 04:00:00 11.9 8 Sudoeste 11 Sudoeste 0 -- -- 75
2019-10-11 03:00:00 12.2 7 Sudoeste 9 Sudoeste 0 -- -- 73
2019-10-11 02:00:00 12.6 5 Sudoeste 9 Sudoeste 0 -- -- 71
2019-10-11 01:00:00 13.1 8 Sudoeste 10 Sudoeste 0 -- -- 69
2019-10-11 00:00:00 14 4 Sudoeste 8 Sudoeste 0 -- -- 66
2019-10-10 23:00:00 16.3 4 Sudeste 16 Este 0 -- -- 58
2019-10-10 22:00:00 17.2 0 Calma 10 Este 0 -- -- 56
2019-10-10 21:00:00 18.6 5 Este 7 Este 0 -- -- 51
2019-10-10 20:00:00 21.2 0 Calma 6 Sur 0 -- -- 44
2019-10-10 19:00:00 23.8 3 Sur 9 Sur 0 -- -- 37
2019-10-10 18:00:00 24.6 4 Sur 9 Este 0 -- -- 36
2019-10-10 17:00:00 24.6 6 Sudeste 11 Sudeste 0 -- -- 36
2019-10-10 16:00:00 23.4 6 Norte 15 Noroeste 0 -- -- 36
2019-10-10 15:00:00 22.2 8 Norte 23 Noroeste 0 -- -- 37
2019-10-10 14:00:00 21.6 12 Noroeste 20 Noroeste 0 -- -- 40
2019-10-10 13:00:00 19.7 5 Norte 14 Norte 0 -- -- 47
2019-10-10 12:00:00 16.7 8 Norte 16 Noroeste 0 -- -- 57
2019-10-10 11:00:00 16 9 Norte 17 Noroeste 0 -- -- 59
2019-10-10 10:00:00 15.1 11 Noroeste 17 Noroeste 0 -- -- 61
2019-10-10 09:00:00 14.7 8 Noroeste 15 Oeste 0 -- -- 62
2019-10-10 08:00:00 14.7 5 Oeste 15 Noroeste 0 -- -- 61
2019-10-10 07:00:00 15.2 8 Noroeste 26 Noroeste 0 -- -- 61
2019-10-10 06:00:00 16 15 Noroeste 28 Noroeste 0 -- -- 57
2019-10-10 05:00:00 15.8 8 Noroeste 19 Noroeste 0 -- -- 58
2019-10-10 04:00:00 15.5 5 Oeste 25 Oeste 0 -- -- 60
2019-10-10 03:00:00 15.9 22 Oeste 42 Oeste 0 -- -- 59
2019-10-10 02:00:00 15.3 8 Sudoeste 21 Oeste 0 -- -- 60
2019-10-10 01:00:00 15.9 13 Oeste 34 Oeste 0 -- -- 55
2019-10-10 00:00:00 16.6 19 Oeste 35 Oeste 0 -- -- 55
2019-10-09 23:00:00 17.3 21 Oeste 34 Oeste 0 -- -- 52
2019-10-09 22:00:00 18.5 21 Oeste 36 Oeste 0 -- -- 49
2019-10-09 21:00:00 19.9 23 Oeste 40 Oeste 0 -- -- 47
2019-10-09 20:00:00 21.1 17 Oeste 29 Oeste 0 -- -- 45
2019-10-09 19:00:00 23 19 Oeste 36 Noroeste 0 -- -- 41
2019-10-09 18:00:00 24.4 22 Noroeste 36 Oeste 0 -- -- 40
2019-10-09 17:00:00 24.9 23 Noroeste 48 Noroeste 0 -- -- 42
2019-10-09 16:00:00 25.4 22 Noroeste 37 Oeste 0 -- -- 44
2019-10-09 15:00:00 24.9 26 Oeste 42 Oeste 0 -- -- 46
2019-10-09 14:00:00 24.2 22 Noroeste 34 Noroeste 0 -- -- 50
2019-10-09 13:00:00 22.9 20 Noroeste 33 Oeste 0 -- -- 56
2019-10-09 12:00:00 21.3 22 Noroeste 32 Noroeste 0 -- -- 59
2019-10-09 11:00:00 20 17 Noroeste 33 Noroeste 0 -- -- 63
2019-10-09 10:00:00 17.8 4 Nordeste 9 Noroeste 0 -- -- 72
2019-10-09 09:00:00 13.8 3 Oeste 12 Oeste 0 -- -- 82
2019-10-09 08:00:00 12.7 9 Oeste 12 Sudoeste 0 -- -- 80
2019-10-09 07:00:00 13.1 3 Sur 5 Sudeste 0 -- -- 77
2019-10-09 06:00:00 13.7 0 Calma 5 Oeste 0 -- -- 73
2019-10-09 05:00:00 14.7 5 Noroeste 9 Sudoeste 0 -- -- 70
2019-10-09 04:00:00 14.5 8 Sudoeste 13 Sudoeste 0 -- -- 70
2019-10-09 03:00:00 15.6 0 Calma 8 Sur 0 -- -- 68
2019-10-09 02:00:00 15.7 3 Sudeste 8 Sur 0 -- -- 67
2019-10-09 01:00:00 15.9 8 Sudoeste 10 Sudoeste 0 -- -- 62
2019-10-09 00:00:00 17.1 4 Sudoeste 8 Sudoeste 0 -- -- 57
2019-10-08 23:00:00 19.3 5 Sudoeste 10 Sudoeste 0 -- -- 53
2019-10-08 22:00:00 22.1 2 Este 12 Este 0 -- -- 42
2019-10-08 21:00:00 24 8 Este 17 Este 0 -- -- 36
2019-10-08 20:00:00 26.2 6 Sudeste 12 Este 0 -- -- 35
2019-10-08 19:00:00 29.2 0 Calma 12 Este 0 -- -- 34
2019-10-08 18:00:00 30.4 5 Este 12 Este 0 -- -- 30
2019-10-08 17:00:00 29.9 6 Este 15 Este 0 -- -- 31
2019-10-08 16:00:00 29.3 4 Nordeste 14 Este 0 -- -- 29
2019-10-08 15:00:00 27.8 5 Nordeste 12 Nordeste 0 -- -- 31
2019-10-08 14:00:00 25.6 4 Norte 9 Norte 0 -- -- 32
2019-10-08 13:00:00 23.1 6 Noroeste 10 Noroeste 0 -- -- 34
2019-10-08 12:00:00 20.9 4 Norte 15 Noroeste 0 -- -- 39
2019-10-08 11:00:00 19.3 8 Noroeste 12 Noroeste 0 -- -- 39
2019-10-08 10:00:00 16.1 6 Noroeste 10 Noroeste 0 -- -- 47
2019-10-08 09:00:00 12.8 4 Sudoeste 8 Sur 0 -- -- 57
2019-10-08 08:00:00 12.3 2 Sur 9 Oeste 0 -- -- 58
2019-10-08 07:00:00 12.5 4 Sudeste 9 Sudeste 0 -- -- 54
2019-10-08 06:00:00 13.5 4 Sur 8 Sudoeste 0 -- -- 52
2019-10-08 05:00:00 15 5 Este 14 Oeste 0 -- -- 49
2019-10-08 04:00:00 15.9 11 Oeste 16 Oeste 0 -- -- 41
2019-10-08 03:00:00 16.7 4 Este 9 Este 0 -- -- 40
2019-10-08 02:00:00 17.7 4 Este 10 Norte 0 -- -- 37
2019-10-08 01:00:00 19.2 5 Noroeste 12 Noroeste 0 -- -- 34
2019-10-08 00:00:00 20.3 5 Norte 28 Oeste 0 -- -- 30
2019-10-07 23:00:00 21.6 14 Oeste 41 Noroeste 0 -- -- 27
2019-10-07 22:00:00 22.6 24 Noroeste 41 Oeste 0 -- -- 32
2019-10-07 21:00:00 23.2 23 Noroeste 42 Noroeste 0 -- -- 35
2019-10-07 20:00:00 24.4 29 Noroeste 49 Oeste 0 -- -- 37
2019-10-07 19:00:00 25.9 26 Noroeste 47 Noroeste 0 -- -- 33
2019-10-07 18:00:00 26.5 26 Oeste 49 Noroeste 0 -- -- 33
2019-10-07 17:00:00 26.1 26 Noroeste 45 Noroeste 0 -- -- 34
2019-10-07 16:00:00 25.7 25 Oeste 50 Noroeste 0 -- -- 34
2019-10-07 15:00:00 24.5 31 Noroeste 45 Oeste 0 -- -- 36
2019-10-07 14:00:00 22.5 30 Noroeste 56 Oeste 0 -- -- 38
2019-10-07 13:00:00 22.5 30 Noroeste 52 Noroeste 0 -- -- 39
2019-10-07 12:00:00 20.7 34 Noroeste 55 Noroeste 0 -- -- 44
2019-10-07 11:00:00 19.6 24 Noroeste 52 Oeste 0 -- -- 48
2019-10-07 10:00:00 18 34 Noroeste 57 Oeste 0 -- -- 52
2019-10-07 09:00:00 16.2 22 Noroeste 41 Noroeste 0 -- -- 58
2019-10-07 08:00:00 15.6 23 Noroeste 44 Oeste 0 -- -- 59
2019-10-07 07:00:00 16.1 28 Noroeste 53 Oeste 0 -- -- 56
2019-10-07 06:00:00 16.1 33 Noroeste 57 Noroeste 0 -- -- 56
2019-10-07 05:00:00 16.3 36 Oeste 58 Oeste 0 -- -- 59
2019-10-07 04:00:00 16.5 33 Oeste 55 Oeste 0 -- -- 60
2019-10-07 03:00:00 16.9 30 Oeste 47 Noroeste 0 -- -- 60
2019-10-07 02:00:00 17.4 31 Noroeste 50 Oeste 0 -- -- 60
2019-10-07 01:00:00 17.7 28 Oeste 55 Noroeste 0 -- -- 59
2019-10-07 00:00:00 18.3 33 Noroeste 52 Noroeste 0 -- -- 58
2019-10-06 23:00:00 18.8 24 Oeste 41 Oeste 0 -- -- 56
2019-10-06 22:00:00 19.7 26 Oeste 54 Oeste 0 -- -- 54
2019-10-06 21:00:00 20.7 20 Oeste 38 Noroeste 0 -- -- 52
2019-10-06 20:00:00 22.1 24 Noroeste 45 Oeste 0 -- -- 47
2019-10-06 19:00:00 23.5 28 Noroeste 45 Noroeste 0 -- -- 47
2019-10-06 18:00:00 24.4 28 Noroeste 40 Oeste 0 -- -- 46
2019-10-06 17:00:00 25 23 Noroeste 40 Oeste 0 -- -- 45
2019-10-06 16:00:00 24.9 28 Noroeste 48 Oeste 0 -- -- 44
2019-10-06 15:00:00 24.5 23 Noroeste 46 Oeste 0 -- -- 44
2019-10-06 14:00:00 22.8 27 Oeste 48 Noroeste 0 -- -- 47
2019-10-06 13:00:00 22.7 23 Noroeste 37 Oeste 0 -- -- 46
2019-10-06 12:00:00 20.7 26 Oeste 66 Noroeste 0 -- -- 49
2019-10-06 11:00:00 20 26 Oeste 43 Oeste 0 -- -- 51
2019-10-06 10:00:00 18.8 23 Noroeste 41 Noroeste 0 -- -- 57
2019-10-06 09:00:00 16.9 24 Oeste 43 Oeste 0 -- -- 63
2019-10-06 08:00:00 15.5 2 Sudoeste 18 Sudoeste 0 -- -- 72
2019-10-06 07:00:00 15.6 11 Sudoeste 19 Oeste 0 -- -- 73
2019-10-06 06:00:00 15.1 5 Noroeste 16 Noroeste 0 -- -- 75
2019-10-06 05:00:00 13.9 2 Sudoeste 8 Este 0 -- -- 77
2019-10-06 04:00:00 15 5 Sudeste 9 Este 0 -- -- 72
2019-10-06 03:00:00 15.9 5 Este 23 Noroeste 0 -- -- 70
2019-10-06 02:00:00 17 9 Noroeste 23 Noroeste 0 -- -- 64
2019-10-06 01:00:00 15.7 5 Noroeste 7 Noroeste 0 -- -- 63
2019-10-06 00:00:00 16.2 3 Oeste 5 Oeste 0 -- -- 57
2019-10-05 23:00:00 17.2 7 Sudoeste 13 Sudoeste 0 -- -- 55
2019-10-05 22:00:00 18.5 13 Sudoeste 17 Sudoeste 0 -- -- 53
2019-10-05 21:00:00 20 9 Sudoeste 13 Sudoeste 0 -- -- 53
2019-10-05 20:00:00 24.2 3 Sudoeste 5 Norte 0 -- -- 41
2019-10-05 19:00:00 26.4 5 Noroeste 16 Noroeste 0 -- -- 39
2019-10-05 18:00:00 27 11 Noroeste 21 Noroeste 0 -- -- 36
2019-10-05 17:00:00 26.7 15 Noroeste 31 Norte 0 -- -- 37
2019-10-05 16:00:00 26.1 20 Noroeste 29 Noroeste 0 -- -- 34
2019-10-05 15:00:00 25.5 15 Noroeste 26 Noroeste 0 -- -- 41
2019-10-05 14:00:00 24.1 16 Noroeste 28 Noroeste 0 -- -- 46
2019-10-05 13:00:00 22.7 17 Noroeste 32 Noroeste 0 -- -- 49
2019-10-05 12:00:00 21.6 23 Noroeste 39 Oeste 0 -- -- 53
2019-10-05 11:00:00 20.4 22 Noroeste 37 Noroeste 0 -- -- 56
2019-10-05 10:00:00 19.1 18 Oeste 31 Oeste 0 -- -- 62
2019-10-05 09:00:00 16.9 15 Oeste 22 Oeste 0 -- -- 70
2019-10-05 08:00:00 15.6 12 Oeste 22 Oeste 0 -- -- 74
2019-10-05 07:00:00 15.6 12 Sudoeste 16 Sudoeste 0 -- -- 73
2019-10-05 06:00:00 15.4 5 Sudeste 15 Oeste 0 -- -- 72
2019-10-05 05:00:00 16.3 9 Oeste 21 Oeste 0 -- -- 71
2019-10-05 04:00:00 17.3 13 Sudoeste 21 Sudoeste 0 -- -- 68
2019-10-05 03:00:00 17.8 9 Oeste 26 Oeste 0 -- -- 65
2019-10-05 02:00:00 18.6 16 Oeste 27 Oeste 0 -- -- 63
2019-10-05 01:00:00 19.3 14 Noroeste 29 Noroeste 0 -- -- 61
2019-10-05 00:00:00 20.2 12 Oeste 27 Oeste 0 -- -- 59
2019-10-04 23:00:00 21.7 13 Oeste 22 Oeste 0 -- -- 56
2019-10-04 22:00:00 22.4 13 Oeste 22 Oeste 0 -- -- 54
2019-10-04 21:00:00 23.7 12 Oeste 22 Oeste 0 -- -- 49
2019-10-04 20:00:00 24.9 11 Oeste 19 Oeste 0 -- -- 46
2019-10-04 19:00:00 27.4 10 Oeste 22 Noroeste 0 -- -- 41
2019-10-04 18:00:00 28 13 Noroeste 27 Noroeste 0 -- -- 39
2019-10-04 17:00:00 27.8 16 Noroeste 28 Noroeste 0 -- -- 40
2019-10-04 16:00:00 27.8 18 Noroeste 29 Oeste 0 -- -- 40
2019-10-04 15:00:00 27.4 18 Noroeste 31 Noroeste 0 -- -- 42
2019-10-04 14:00:00 26.7 21 Noroeste 33 Noroeste 0 -- -- 45
2019-10-04 13:00:00 25.9 15 Noroeste 27 Norte 0 -- -- 49
2019-10-04 12:00:00 23.4 5 Este 11 Este 0 -- -- 46
2019-10-04 11:00:00 20.4 0 Calma 9 Noroeste 0 -- -- 53
2019-10-04 10:00:00 17.5 3 Nordeste 6 Nordeste 0 -- -- 58
2019-10-04 09:00:00 13.7 2 Este 4 Este 0 -- -- 67
2019-10-04 08:00:00 12.6 0 Calma 6 Noroeste 0 -- -- 67
2019-10-04 07:00:00 13.6 2 Sudeste 5 Este 0 -- -- 62
2019-10-04 06:00:00 14.6 0 Calma 6 Noroeste 0 -- -- 60
2019-10-04 05:00:00 15.8 4 Norte 10 Noroeste 0 -- -- 56
2019-10-04 04:00:00 17.7 10 Oeste 34 Oeste 0 -- -- 50
2019-10-04 03:00:00 -- -- -- -- -- -- -- -- --
2019-10-04 02:00:00 19.2 17 Noroeste 27 Oeste 0 -- -- 41
2019-10-04 01:00:00 19 15 Oeste 30 Oeste 0 -- -- 45
2019-10-04 00:00:00 19.7 18 Oeste 36 Oeste 0 -- -- 43
2019-10-03 23:00:00 20.6 23 Oeste 39 Oeste 0 -- -- 40
2019-10-03 22:00:00 21.3 21 Oeste 34 Oeste 0 -- -- 39
2019-10-03 21:00:00 22.4 13 Oeste 32 Noroeste 0 -- -- 38
2019-10-03 20:00:00 23.7 9 Oeste 28 Oeste 0 -- -- 34
2019-10-03 19:00:00 26.1 19 Oeste 40 Oeste 0 -- -- 30
2019-10-03 18:00:00 27.1 24 Oeste 37 Oeste 0 -- -- 23
2019-10-03 17:00:00 26.6 26 Noroeste 41 Noroeste 0 -- -- 24
2019-10-03 16:00:00 25.6 20 Noroeste 34 Noroeste 0 -- -- 30
2019-10-03 15:00:00 24.2 19 Noroeste 32 Noroeste 0 -- -- 37
2019-10-03 14:00:00 22.5 21 Noroeste 37 Oeste 0 -- -- 41
2019-10-03 13:00:00 21.3 24 Noroeste 37 Noroeste 0 -- -- 46
2019-10-03 12:00:00 20 23 Noroeste 40 Noroeste 0 -- -- 49
2019-10-03 11:00:00 18.6 20 Noroeste 32 Noroeste 0 -- -- 53
2019-10-03 10:00:00 16.5 11 Noroeste 18 Oeste 0 -- -- 61
2019-10-03 09:00:00 15.6 11 Oeste 19 Oeste 0 -- -- 63
2019-10-03 08:00:00 15 13 Oeste 23 Oeste 0 -- -- 64
2019-10-03 07:00:00 15.2 13 Oeste 25 Oeste 0 -- -- 65
2019-10-03 06:00:00 15.4 13 Noroeste 42 Noroeste 0 -- -- 67
2019-10-03 05:00:00 15.8 29 Noroeste 46 Oeste 0 -- -- 66
2019-10-03 04:00:00 16 27 Noroeste 41 Oeste 0 -- -- 65
2019-10-03 03:00:00 16 18 Oeste 35 Oeste 0 -- -- 66
2019-10-03 02:00:00 16.5 22 Oeste 41 Oeste 0 -- -- 62
2019-10-03 01:00:00 16.9 27 Oeste 44 Oeste 0 -- -- 61
2019-10-03 00:00:00 16.8 21 Oeste 36 Oeste 0 -- -- 65
2019-10-02 23:00:00 17.6 19 Oeste 53 Oeste 0 -- -- 60
2019-10-02 22:00:00 18.6 27 Noroeste 54 Noroeste 0 -- -- 59
2019-10-02 21:00:00 19.3 24 Oeste 58 Noroeste 0 -- -- 56
2019-10-02 20:00:00 20.1 32 Oeste 59 Oeste 0 -- -- 53
2019-10-02 19:00:00 21.4 36 Noroeste 58 Noroeste 0 -- -- 49
2019-10-02 18:00:00 22.9 34 Noroeste 62 Noroeste 0 -- -- 44
2019-10-02 17:00:00 23.1 44 Noroeste 63 Noroeste 0 -- -- 44
2019-10-02 16:00:00 23.7 39 Noroeste 68 Oeste 0 -- -- 41
2019-10-02 15:00:00 23.1 46 Noroeste 68 Noroeste 0 -- -- 44
2019-10-02 14:00:00 22.9 44 Noroeste 66 Noroeste 0 -- -- 45
2019-10-02 13:00:00 22.3 40 Noroeste 62 Noroeste 0 -- -- 45
2019-10-02 12:00:00 21.5 33 Noroeste 56 Noroeste 0 -- -- 48
2019-10-02 11:00:00 20.2 34 Noroeste 64 Oeste 0 -- -- 51
2019-10-02 10:00:00 19 25 Oeste 42 Oeste 0 -- -- 55
2019-10-02 09:00:00 16.7 18 Oeste 30 Oeste 0 -- -- 65
2019-10-02 08:00:00 15.7 16 Oeste 28 Oeste 0 -- -- 69
2019-10-02 07:00:00 16.8 17 Oeste 32 Noroeste 0 -- -- 68
2019-10-02 06:00:00 17.2 18 Oeste 40 Noroeste 0 -- -- 68
2019-10-02 05:00:00 18.3 29 Noroeste 44 Oeste 0 -- -- 65
2019-10-02 04:00:00 18.2 22 Oeste 34 Oeste 0 -- -- 66
2019-10-02 03:00:00 18.5 21 Oeste 35 Oeste 0 -- -- 65
2019-10-02 02:00:00 19 22 Oeste 37 Oeste 0 -- -- 63
2019-10-02 01:00:00 19.9 23 Oeste 38 Oeste 0 -- -- 60
2019-10-02 00:00:00 21 21 Oeste 37 Oeste 0 -- -- 56
2019-10-01 23:00:00 22.2 17 Oeste 30 Oeste 0 -- -- 52
2019-10-01 22:00:00 24.2 14 Oeste 28 Noroeste 0 -- -- 47
2019-10-01 21:00:00 25.1 17 Noroeste 33 Noroeste 0 -- -- 46
2019-10-01 20:00:00 26.6 19 Noroeste 36 Oeste 0 -- -- 44
2019-10-01 19:00:00 28.1 17 Noroeste 30 Noroeste 0 -- -- 43
2019-10-01 18:00:00 29.1 22 Noroeste 32 Noroeste 0 -- -- 40
2019-10-01 17:00:00 29.6 19 Noroeste 30 Noroeste 0 -- -- 39
2019-10-01 16:00:00 30.4 19 Noroeste 31 Oeste 0 -- -- 34
2019-10-01 15:00:00 28.8 17 Noroeste 28 Noroeste 0 -- -- 34
2019-10-01 14:00:00 25.7 5 Norte 12 Noroeste 0 -- -- 55
2019-10-01 13:00:00 22.7 4 Noroeste 9 Noroeste 0 -- -- 70
2019-10-01 12:00:00 19.4 4 Norte 8 Este 0 -- -- 84
2019-10-01 11:00:00 18.2 2 Norte 6 Noroeste 0 -- -- 90
2019-10-01 10:00:00 16.6 2 Noroeste 7 Noroeste 0 -- -- 90
2019-10-01 09:00:00 15.5 0 Calma 5 Sudoeste 0 -- -- 85
2019-10-01 08:00:00 13.6 3 Sudoeste 13 Sudoeste 0 -- -- 89
2019-10-01 07:00:00 13.7 5 Sudoeste 9 Sudoeste 0 -- -- 91
2019-10-01 06:00:00 14.2 6 Sur 11 Sudoeste 0 -- -- 88
2019-10-01 05:00:00 14.9 7 Sudoeste 11 Sudoeste 0 -- -- 87
2019-10-01 04:00:00 16.2 6 Sudoeste 9 Sudeste 0 -- -- 85
2019-10-01 03:00:00 18 5 Sudeste 13 Este 0 -- -- 83
2019-10-01 02:00:00 19.2 6 Este 11 Este 0 -- -- 82
2019-10-01 01:00:00 19.7 4 Este 9 Este 0 -- -- 77
2019-10-01 00:00:00 20.4 3 Noroeste 7 Oeste 0 -- -- 72
2019-09-30 23:00:00 21.6 4 Oeste 12 Este 0 -- -- 68
2019-09-30 22:00:00 24.5 8 Este 17 Este 0 -- -- 58
2019-09-30 21:00:00 26.2 10 Sudeste 16 Sudeste 0 -- -- 49
2019-09-30 20:00:00 27.6 9 Sudeste 17 Sudeste 0 -- -- 34
2019-09-30 19:00:00 31.9 3 Sudeste 9 Este 0 -- -- 29
2019-09-30 18:00:00 32.5 3 Sudeste 9 Noroeste 0 -- -- 27
2019-09-30 17:00:00 31.4 6 Noroeste 10 Noroeste 0 -- -- 30
2019-09-30 16:00:00 30.3 5 Norte 13 Norte 0 -- -- 33
2019-09-30 15:00:00 29.7 4 Norte 13 Nordeste 0 -- -- 32
2019-09-30 14:00:00 28.5 4 Norte 13 Norte 0 -- -- 33
2019-09-30 13:00:00 26.3 6 Norte 14 Norte 0 -- -- 42
2019-09-30 12:00:00 23.9 8 Noroeste 13 Norte 0 -- -- 51
2019-09-30 11:00:00 21.1 5 Norte 9 Noroeste 0 -- -- 58
2019-09-30 10:00:00 19.1 4 Este 7 Este 0 -- -- 61
2019-09-30 09:00:00 15.9 0 Calma 9 Noroeste 0 -- -- 73
2019-09-30 08:00:00 15 4 Norte 10 Norte 0 -- -- 75
2019-09-30 07:00:00 15.9 5 Norte 8 Norte 0 -- -- 70
2019-09-30 06:00:00 16.4 5 Noroeste 11 Noroeste 0 -- -- 66
2019-09-30 05:00:00 17.2 9 Noroeste 15 Noroeste 0 -- -- 63
2019-09-30 04:00:00 17.2 11 Noroeste 14 Noroeste 0 -- -- 64
2019-09-30 03:00:00 15.9 3 Noroeste 6 Noroeste 0 -- -- 60
2019-09-30 02:00:00 16 5 Oeste 9 Oeste 0 -- -- 61
2019-09-30 01:00:00 17.4 4 Oeste 8 Sudoeste 0 -- -- 53
2019-09-30 00:00:00 18.5 6 Sudoeste 9 Sudoeste 0 -- -- 53
2019-09-29 23:00:00 19.6 4 Oeste 6 Sudoeste 0 -- -- 51
2019-09-29 22:00:00 21.7 0 Calma 11 Sudoeste 0 -- -- 44
2019-09-29 21:00:00 23.7 9 Sudoeste 14 Sudoeste 0 -- -- 44
2019-09-29 20:00:00 28.5 6 Sudoeste 8 Sudoeste 0 -- -- 33
2019-09-29 19:00:00 31.7 4 Noroeste 11 Noroeste 0 -- -- 30
2019-09-29 18:00:00 32.2 10 Noroeste 15 Noroeste 0 -- -- 27
2019-09-29 17:00:00 31.8 6 Este 12 Oeste 0 -- -- 32
2019-09-29 16:00:00 30.6 5 Norte 10 Norte 0 -- -- 34
2019-09-29 15:00:00 29.8 5 Este 12 Norte 0 -- -- 36
2019-09-29 14:00:00 27.8 3 Noroeste 10 Norte 0 -- -- 44
2019-09-29 13:00:00 24.7 4 Norte 10 Noroeste 0 -- -- 60
2019-09-29 12:00:00 23 4 Este 11 Este 0 -- -- 69
2019-09-29 11:00:00 19.8 5 Nordeste 9 Norte 0 -- -- 82
2019-09-29 10:00:00 18.3 0 Calma 5 Sudoeste 0 -- -- 90
2019-09-29 09:00:00 16.9 2 Sudoeste 5 Sudoeste 0 -- -- 88
2019-09-29 08:00:00 16.1 2 Oeste 8 Sudoeste 0 -- -- 89
2019-09-29 07:00:00 15.1 7 Sudoeste 11 Sudoeste 0 -- -- 92
2019-09-29 06:00:00 14.5 5 Sudoeste 10 Sudoeste 0 -- -- 89
2019-09-29 05:00:00 15.4 6 Sudoeste 9 Sudoeste 0 -- -- 89
2019-09-29 04:00:00 16.7 7 Sudoeste 9 Sudoeste 0 -- -- 84
2019-09-29 03:00:00 17.7 6 Sudeste 10 Sudeste 0 -- -- 87
2019-09-29 02:00:00 17.7 0 Calma 5 Sudoeste 0 -- -- 82
2019-09-29 01:00:00 18.6 4 Sudoeste 7 Sudoeste 0 -- -- 79
2019-09-29 00:00:00 20.3 0 Calma 5 Sudoeste 0 -- -- 74
2019-09-28 23:00:00 22.3 3 Nordeste 10 Este 0 -- -- 71
2019-09-28 22:00:00 23.8 5 Este 15 Sudeste 0 -- -- 66
2019-09-28 21:00:00 25.1 8 Este 23 Este 0 -- -- 60
2019-09-28 20:00:00 27.2 8 Este 13 Este 0 -- -- 46
2019-09-28 19:00:00 29.9 3 Nordeste 14 Este 0 -- -- 34
2019-09-28 18:00:00 30 8 Sudeste 19 Sudeste 0 -- -- 33
2019-09-28 17:00:00 30.2 6 Sudeste 14 Nordeste 0 -- -- 35
2019-09-28 16:00:00 29.3 3 Sudeste 10 Nordeste 0 -- -- 36
2019-09-28 15:00:00 27.8 3 Nordeste 13 Este 0 -- -- 40
2019-09-28 14:00:00 26.6 4 Este 11 Norte 0 -- -- 45
2019-09-28 13:00:00 24.5 7 Noroeste 19 Noroeste 0 -- -- 49
2019-09-28 12:00:00 22.5 13 Noroeste 24 Noroeste 0 -- -- 58
2019-09-28 11:00:00 20.7 9 Noroeste 18 Noroeste 0 -- -- 65
2019-09-28 10:00:00 18.3 3 Norte 8 Noroeste 0 -- -- 73
2019-09-28 09:00:00 15.8 3 Este 9 Oeste 0 -- -- 82
2019-09-28 08:00:00 14.9 0 Calma 6 Norte 0 -- -- 83
2019-09-28 07:00:00 15.2 3 Norte 10 Noroeste 0 -- -- 81
2019-09-28 06:00:00 15.3 0 Calma 9 Noroeste 0 -- -- 79
2019-09-28 05:00:00 16.6 6 Noroeste 15 Noroeste 0 -- -- 77
2019-09-28 04:00:00 18.2 11 Oeste 16 Oeste 0 -- -- 69
2019-09-28 03:00:00 18.7 11 Oeste 21 Oeste 0 -- -- 68
2019-09-28 02:00:00 17.7 4 Norte 9 Oeste 0 -- -- 62
2019-09-28 01:00:00 18.8 6 Noroeste 12 Oeste 0 -- -- 54
2019-09-28 00:00:00 19.6 4 Noroeste 9 Noroeste 0 -- -- 52
2019-09-27 23:00:00 20.8 6 Noroeste 16 Noroeste 0 -- -- 48
2019-09-27 22:00:00 23.2 9 Oeste 19 Oeste 0 -- -- 39
2019-09-27 21:00:00 24.1 13 Oeste 16 Oeste 0 -- -- 35
2019-09-27 20:00:00 27.7 6 Sudoeste 12 Oeste 0 -- -- 30
2019-09-27 19:00:00 31.7 3 Sudoeste 8 Noroeste 0 -- -- 23
2019-09-27 18:00:00 31.2 5 Noroeste 18 Noroeste 0 -- -- 23
2019-09-27 17:00:00 30.6 13 Norte 25 Norte 0 -- -- 24
2019-09-27 16:00:00 30.1 13 Noroeste 21 Norte 0 -- -- 29
2019-09-27 15:00:00 29.5 15 Noroeste 25 Noroeste 0 -- -- 32
2019-09-27 14:00:00 27.7 17 Noroeste 27 Noroeste 0 -- -- 37
2019-09-27 13:00:00 25.5 16 Noroeste 26 Noroeste 0 -- -- 45
2019-09-27 12:00:00 23 15 Noroeste 27 Noroeste 0 -- -- 55
2019-09-27 11:00:00 20.8 11 Noroeste 19 Noroeste 0 -- -- 61
2019-09-27 10:00:00 18.2 6 Noroeste 9 Noroeste 0 -- -- 66
2019-09-27 09:00:00 14.9 3 Noroeste 5 Noroeste 0 -- -- 78
2019-09-27 08:00:00 13.6 3 Oeste 8 Oeste 0 -- -- 77
2019-09-27 07:00:00 14.5 4 Noroeste 8 Sudoeste 0 -- -- 76
2019-09-27 06:00:00 14.7 6 Sudoeste 8 Sudoeste 0 -- -- 75
2019-09-27 05:00:00 15.1 5 Sudoeste 8 Sudoeste 0 -- -- 68
2019-09-27 04:00:00 15.9 6 Sudoeste 9 Sudoeste 0 -- -- 68
2019-09-27 03:00:00 16.6 3 Este 10 Sudoeste 0 -- -- 65
2019-09-27 02:00:00 17 9 Sudoeste 11 Sudoeste 0 -- -- 66
2019-09-27 01:00:00 18 2 Sur 6 Sudoeste 0 -- -- 57
2019-09-27 00:00:00 18.9 6 Sudoeste 10 Sudoeste 0 -- -- 55
2019-09-26 23:00:00 20.9 7 Sudoeste 9 Sudoeste 0 -- -- 53
2019-09-26 22:00:00 23.5 5 Este 9 Nordeste 0 -- -- 43
2019-09-26 21:00:00 25.1 6 Sudeste 14 Sudeste 0 -- -- 37
2019-09-26 20:00:00 28.3 4 Sur 8 Sudeste 0 -- -- 33
2019-09-26 19:00:00 31 5 Sudeste 9 Este 0 -- -- 28
2019-09-26 18:00:00 31.3 5 Este 9 Este 0 -- -- 28
2019-09-26 17:00:00 30 6 Norte 17 Noroeste 0 -- -- 30
2019-09-26 16:00:00 29.3 10 Norte 21 Norte 0 -- -- 33
2019-09-26 15:00:00 29.1 6 Norte 14 Este 0 -- -- 33
2019-09-26 14:00:00 28.7 6 Este 12 Este 0 -- -- 33
2019-09-26 13:00:00 25.4 5 Norte 10 Norte 0 -- -- 41
2019-09-26 12:00:00 23 5 Nordeste 10 Noroeste 0 -- -- 48
2019-09-26 11:00:00 19.8 7 Noroeste 11 Noroeste 0 -- -- 57
2019-09-26 10:00:00 17.6 3 Norte 6 Norte 0 -- -- 65
2019-09-26 09:00:00 13.9 3 Sudoeste 4 Sudoeste 0 -- -- 77
2019-09-26 08:00:00 12.3 6 Sudoeste 9 Sudoeste 0 -- -- 78
2019-09-26 07:00:00 13.8 2 Oeste 4 Nordeste 0 -- -- 75
2019-09-26 06:00:00 14.7 3 Norte 11 Sudoeste 0 -- -- 70
2019-09-26 05:00:00 15.2 3 Oeste 9 Sudeste 0 -- -- 67
2019-09-26 04:00:00 15.5 5 Sudeste 11 Este 0 -- -- 65
2019-09-26 03:00:00 16.7 3 Noroeste 10 Oeste 0 -- -- 61
2019-09-26 02:00:00 16.8 10 Sudoeste 17 Sudoeste 0 -- -- 59
2019-09-26 01:00:00 17.4 12 Sudoeste 17 Sudoeste 0 -- -- 57
2019-09-26 00:00:00 18.7 4 Sur 17 Oeste 0 -- -- 53
2019-09-25 23:00:00 19.7 6 Oeste 19 Oeste 0 -- -- 50
2019-09-25 22:00:00 21.2 15 Oeste 24 Oeste 0 -- -- 45
2019-09-25 21:00:00 21.6 12 Oeste 18 Oeste 0 -- -- 45
2019-09-25 20:00:00 23.1 13 Noroeste 23 Oeste 0 -- -- 42
2019-09-25 19:00:00 24.3 15 Noroeste 35 Oeste 0 -- -- 38
2019-09-25 18:00:00 24.8 22 Noroeste 35 Noroeste 0 -- -- 36
2019-09-25 17:00:00 25.3 23 Noroeste 41 Noroeste 0 -- -- 35
2019-09-25 16:00:00 25 27 Noroeste 41 Noroeste 0 -- -- 37
2019-09-25 15:00:00 24.7 26 Noroeste 45 Oeste 0 -- -- 39
2019-09-25 14:00:00 24 26 Noroeste 41 Oeste 0 -- -- 42
2019-09-25 13:00:00 23.8 24 Oeste 43 Oeste 0 -- -- 41
2019-09-25 12:00:00 22.9 25 Oeste 42 Oeste 0 -- -- 43
2019-09-25 11:00:00 21.6 28 Oeste 42 Noroeste 0 -- -- 48
2019-09-25 10:00:00 20.2 22 Oeste 36 Oeste 0 -- -- 53
2019-09-25 09:00:00 18.2 18 Oeste 28 Oeste 0 -- -- 62
2019-09-25 08:00:00 17.1 12 Noroeste 19 Oeste 0 -- -- 67
2019-09-25 07:00:00 17.4 9 Noroeste 27 Noroeste 0 -- -- 69
2019-09-25 06:00:00 18.5 10 Noroeste 28 Noroeste 0 -- -- 66
2019-09-25 05:00:00 19 20 Oeste 30 Oeste 0 -- -- 64
2019-09-25 04:00:00 20 12 Noroeste 30 Oeste 0 -- -- 64
2019-09-25 03:00:00 21.6 15 Oeste 28 Oeste 0 -- -- 62
2019-09-25 02:00:00 21.2 3 Este 9 Sur 0 -- -- 62
2019-09-25 01:00:00 22.2 3 Este 16 Sudoeste 0 -- -- 58
2019-09-25 00:00:00 22.9 13 Oeste 17 Sudoeste 0 -- -- 55
2019-09-24 23:00:00 23.9 6 Oeste 17 Oeste 0 -- -- 51
2019-09-24 22:00:00 25.5 9 Oeste 22 Noroeste 0 -- -- 45
2019-09-24 21:00:00 26.5 16 Oeste 30 Noroeste 0 -- -- 44
2019-09-24 20:00:00 27.1 15 Noroeste 31 Noroeste 0 -- -- 45
2019-09-24 19:00:00 29.8 22 Noroeste 40 Oeste 0 -- -- 38
2019-09-24 18:00:00 31.1 21 Oeste 39 Noroeste 0 -- -- 33
2019-09-24 17:00:00 32.2 22 Oeste 42 Oeste 0 -- -- 30
2019-09-24 16:00:00 31.5 23 Noroeste 46 Oeste 0 -- -- 29
2019-09-24 15:00:00 31.1 26 Oeste 41 Oeste 0 -- -- 27
2019-09-24 14:00:00 29.3 8 Norte 13 Noroeste 0 -- -- 34
2019-09-24 13:00:00 27.3 6 Nordeste 12 Nordeste 0 -- -- 37
2019-09-24 12:00:00 24.5 6 Norte 12 Norte 0 -- -- 42
2019-09-24 11:00:00 20.7 3 Norte 8 Norte 0 -- -- 51
2019-09-24 10:00:00 17.4 3 Norte 7 Norte 0 -- -- 62
2019-09-24 09:00:00 13.3 2 Noroeste 9 Sudoeste 0 -- -- 69
2019-09-24 08:00:00 11.6 0 Calma 7 Sudoeste 0 -- -- 77
2019-09-24 07:00:00 12.4 2 Sudeste 7 Sur 0 -- -- 72
2019-09-24 06:00:00 13 5 Oeste 8 Sudoeste 0 -- -- 74
2019-09-24 05:00:00 14.1 2 Nordeste 5 Nordeste 0 -- -- 68
2019-09-24 04:00:00 14.6 3 Sudeste 8 Este 0 -- -- 62
2019-09-24 03:00:00 14.9 3 Este 5 Sudeste 0 -- -- 62
2019-09-24 02:00:00 15.8 5 Este 9 Este 0 -- -- 57
2019-09-24 01:00:00 16.8 4 Este 8 Este 0 -- -- 55
2019-09-24 00:00:00 17.7 4 Este 6 Nordeste 0 -- -- 53
2019-09-23 23:00:00 18.3 2 Sudoeste 7 Sudoeste 0 -- -- 54
2019-09-23 22:00:00 20.6 4 Sudeste 10 Sudeste 0 -- -- 47
2019-09-23 21:00:00 22.9 6 Sudeste 8 Sudeste 0 -- -- 39
2019-09-23 20:00:00 24.2 2 Norte 8 Norte 0 -- -- 38
2019-09-23 19:00:00 25.7 6 Norte 19 Norte 0 -- -- 37
2019-09-23 18:00:00 26.8 14 Norte 23 Noroeste 0 -- -- 32
2019-09-23 17:00:00 26.4 5 Norte 12 Nordeste 0 -- -- 35
2019-09-23 16:00:00 26.8 6 Nordeste 15 Norte 0 -- -- 35
2019-09-23 15:00:00 26.4 6 Norte 18 Norte 0 -- -- 36
2019-09-23 14:00:00 25.9 10 Norte 17 Norte 0 -- -- 33
2019-09-23 13:00:00 24.2 5 Nordeste 10 Nordeste 0 -- -- 46
2019-09-23 12:00:00 21.3 7 Noroeste 13 Norte 0 -- -- 54
2019-09-23 11:00:00 19.6 3 Nordeste 8 Este 0 -- -- 60
2019-09-23 10:00:00 16.6 3 Nordeste 7 Este 0 -- -- 70
2019-09-23 09:00:00 12.4 3 Este 7 Este 0 -- -- 82
2019-09-23 08:00:00 10.6 0 Calma 6 Sudoeste 0 -- -- 84
2019-09-23 07:00:00 11 5 Sudoeste 8 Sudoeste 0 -- -- 82
2019-09-23 06:00:00 12.1 2 Este 6 Sudoeste 0 -- -- 77
2019-09-23 05:00:00 13.3 0 Calma 7 Este 0 -- -- 72
2019-09-23 04:00:00 13.2 5 Este 10 Este 0 -- -- 74
2019-09-23 03:00:00 13.6 4 Oeste 7 Sudoeste 0 -- -- 72
2019-09-23 02:00:00 14.4 5 Sudoeste 10 Sudoeste 0 -- -- 68
2019-09-23 01:00:00 15.9 11 Sudoeste 16 Sudoeste 0 -- -- 61
2019-09-23 00:00:00 16.5 10 Sudoeste 14 Sudoeste 0 -- -- 63
2019-09-22 23:00:00 18.8 5 Noroeste 13 Noroeste 0 -- -- 59
2019-09-22 22:00:00 20.2 6 Noroeste 14 Oeste 0 -- -- 52
2019-09-22 21:00:00 21.7 5 Oeste 15 Noroeste 0 -- -- 51
2019-09-22 20:00:00 23.2 12 Noroeste 26 Noroeste 0 -- -- 48
2019-09-22 19:00:00 25.5 22 Noroeste 33 Noroeste 0 -- -- 44
2019-09-22 18:00:00 26 17 Noroeste 32 Noroeste 0 -- -- 44
2019-09-22 17:00:00 25.6 17 Noroeste 50 Oeste 0 -- -- 48
2019-09-22 16:00:00 26.6 30 Oeste 45 Oeste 0 -- -- 41
2019-09-22 15:00:00 26.3 17 Noroeste 30 Noroeste 0 -- -- 49
2019-09-22 14:00:00 26.4 19 Noroeste 36 Noroeste 0 -- -- 50
2019-09-22 13:00:00 26 22 Oeste 37 Noroeste 0 -- -- 53
2019-09-22 12:00:00 26 6 Nordeste 14 Norte 0 -- -- 52
2019-09-22 11:00:00 25.7 6 Sudeste 12 Sur 0 -- -- 64
2019-09-22 10:00:00 22.8 8 Sur 12 Sudeste 0 -- -- 77
2019-09-22 09:00:00 19.8 4 Este 14 Este 0 -- -- 89
2019-09-22 08:00:00 19.3 8 Este 12 Este 0.6 -- -- 90
2019-09-22 07:00:00 19.8 0 Calma 9 Este 0 -- -- 84
2019-09-22 06:00:00 20.1 6 Este 10 Este 0 -- -- 82
2019-09-22 05:00:00 20.1 4 Sudeste 6 Este 0 -- -- 79
2019-09-22 04:00:00 21.1 3 Norte 6 Este 0 -- -- 79
2019-09-22 03:00:00 21.5 4 Este 10 Este 0 -- -- 77
2019-09-22 02:00:00 21.9 4 Este 8 Este 0 -- -- 75
2019-09-22 01:00:00 22.3 3 Este 6 Nordeste 0 -- -- 75
2019-09-22 00:00:00 22.7 4 Norte 13 Noroeste 0 -- -- 74
2019-09-21 23:00:00 24 5 Nordeste 18 Sudeste 0 -- -- 63
2019-09-21 22:00:00 24.9 6 Este 15 Sudeste 0 -- -- 57
2019-09-21 21:00:00 26.1 10 Sudeste 22 Este 0 -- -- 50
2019-09-21 20:00:00 27.7 12 Sudeste 22 Sudeste 0 -- -- 47
2019-09-21 19:00:00 29.1 3 Nordeste 13 Este 0 -- -- 38
2019-09-21 18:00:00 29.9 6 Nordeste 18 Este 0 -- -- 36
2019-09-21 17:00:00 29.6 6 Norte 17 Norte 0 -- -- 38
2019-09-21 16:00:00 29.1 9 Norte 15 Norte 0 -- -- 39
2019-09-21 15:00:00 28.3 8 Norte 14 Este 0 -- -- 43
2019-09-21 14:00:00 27.6 6 Nordeste 15 Este 0 -- -- 45
2019-09-21 13:00:00 26.1 8 Este 17 Este 0 -- -- 51
2019-09-21 12:00:00 25.2 12 Sudeste 21 Sudeste 0 -- -- 60
2019-09-21 11:00:00 23.7 7 Este 19 Nordeste 0 -- -- 63
2019-09-21 10:00:00 21.4 9 Este 17 Este 0 -- -- 78
2019-09-21 09:00:00 19.2 9 Este 16 Sudeste 0 -- -- 85
2019-09-21 08:00:00 18.7 11 Sudeste 27 Sudeste 0.2 -- -- 86
2019-09-21 07:00:00 19.4 13 Sudeste 21 Este 0 -- -- 86
2019-09-21 06:00:00 19.3 3 Sudeste 7 Nordeste 0 -- -- 86
2019-09-21 05:00:00 19.6 4 Este 26 Sudeste 0.2 -- -- 85
2019-09-21 04:00:00 21 10 Este 23 Este 0 -- -- 73
2019-09-21 03:00:00 20.8 12 Este 26 Este 0 -- -- 73
2019-09-21 02:00:00 20.9 12 Este 29 Este 0 -- -- 71
2019-09-21 01:00:00 21.1 14 Este 35 Este 0 -- -- 71
2019-09-21 00:00:00 21.8 15 Este 29 Este 0 -- -- 67
2019-09-20 23:00:00 22.7 19 Este 34 Este 0 -- -- 59
2019-09-20 22:00:00 23.1 17 Este 35 Este 0 -- -- 61
2019-09-20 21:00:00 23.5 21 Este 36 Este 0 -- -- 61
2019-09-20 20:00:00 24.8 20 Este 43 Este 0 -- -- 59
2019-09-20 19:00:00 26.3 22 Este 38 Este 0 -- -- 54
2019-09-20 18:00:00 27.5 22 Este 42 Este 0 -- -- 51
2019-09-20 17:00:00 29.8 17 Este 37 Este 0 -- -- 45
2019-09-20 16:00:00 30.4 19 Este 37 Este 0 -- -- 44
2019-09-20 15:00:00 30.1 15 Este 35 Este 0 -- -- 46
2019-09-20 14:00:00 30 15 Este 31 Este 0 -- -- 47
2019-09-20 13:00:00 28.7 16 Este 32 Este 0 -- -- 51
2019-09-20 12:00:00 26.3 15 Sudeste 31 Sudeste 0 -- -- 55
2019-09-20 11:00:00 24.6 12 Este 21 Este 0 -- -- 65
2019-09-20 10:00:00 21.8 9 Este 13 Sudeste 0 -- -- 71
2019-09-20 09:00:00 19.1 6 Sudeste 12 Sudeste 0 -- -- 79
2019-09-20 08:00:00 17.7 0 Calma 9 Sudeste 0 -- -- 81
2019-09-20 07:00:00 18.7 8 Este 13 Este 0 -- -- 79
2019-09-20 06:00:00 19 8 Sudeste 14 Este 0 -- -- 79
2019-09-20 05:00:00 19.5 4 Sudeste 13 Este 0 -- -- 76
2019-09-20 04:00:00 19.9 8 Este 13 Este 0 -- -- 76
2019-09-20 03:00:00 20.6 5 Este 15 Este 0.2 -- -- 75
2019-09-20 02:00:00 21.4 5 Este 19 Este 0 -- -- 67
2019-09-20 01:00:00 21.8 11 Este 23 Este 0 -- -- 65
2019-09-20 00:00:00 22.7 10 Este 21 Este 0 -- -- 61
2019-09-19 23:00:00 23.3 4 Este 17 Sudeste 0 -- -- 61
2019-09-19 22:00:00 25 11 Sudeste 17 Sudeste 0 -- -- 53
2019-09-19 21:00:00 26.4 11 Sudeste 19 Sur 0 -- -- 45
2019-09-19 20:00:00 28 9 Sudeste 14 Sudeste 0 -- -- 41
2019-09-19 19:00:00 30.2 8 Sudeste 12 Sudeste 0 -- -- 37
2019-09-19 18:00:00 31.6 4 Este 12 Este 0 -- -- 35
2019-09-19 17:00:00 31.1 3 Nordeste 12 Este 0 -- -- 37
2019-09-19 16:00:00 31 4 Sur 11 Este 0 -- -- 37
2019-09-19 15:00:00 29.5 5 Nordeste 12 Nordeste 0 -- -- 40
2019-09-19 14:00:00 28 6 Norte 13 Norte 0 -- -- 47
2019-09-19 13:00:00 26.4 6 Norte 15 Noroeste 0 -- -- 52
2019-09-19 12:00:00 24.6 10 Noroeste 16 Noroeste 0 -- -- 58
2019-09-19 11:00:00 23 5 Noroeste 12 Nordeste 0 -- -- 67
2019-09-19 10:00:00 20.2 4 Norte 7 Nordeste 0 -- -- 76
2019-09-19 09:00:00 17.7 0 Calma 6 Oeste 0 -- -- 86
2019-09-19 08:00:00 17.3 3 Oeste 9 Noroeste 0 -- -- 83
2019-09-19 07:00:00 18.3 7 Noroeste 12 Noroeste 0 -- -- 82
2019-09-19 06:00:00 18.6 4 Oeste 9 Noroeste 0 -- -- 82
2019-09-19 05:00:00 19.3 3 Noroeste 8 Noroeste 0 -- -- 79
2019-09-19 04:00:00 20.3 3 Oeste 9 Oeste 0 -- -- 72
2019-09-19 03:00:00 21 4 Noroeste 8 Norte 0 -- -- 71
2019-09-19 02:00:00 21.3 3 Este 5 Este 0 -- -- 64
2019-09-19 01:00:00 21.9 2 Oeste 8 Este 0 -- -- 64
2019-09-19 00:00:00 22.7 0 Calma 10 Oeste 0 -- -- 59
2019-09-18 23:00:00 23.1 5 Oeste 9 Oeste 0 -- -- 54
2019-09-18 22:00:00 23.5 6 Noroeste 9 Noroeste 0 -- -- 58
2019-09-18 21:00:00 25.1 0 Calma 9 Noroeste 0 -- -- 54
2019-09-18 20:00:00 26.9 2 Nordeste 13 Este 0 -- -- 45
2019-09-18 19:00:00 28.6 8 Sudeste 29 Este 0 -- -- 38
2019-09-18 18:00:00 30.1 6 Norte 20 Noroeste 0 -- -- 39
2019-09-18 17:00:00 30 10 Noroeste 22 Norte 0 -- -- 39
2019-09-18 16:00:00 29 11 Norte 22 Norte 0 -- -- 43
2019-09-18 15:00:00 28.9 12 Noroeste 27 Noroeste 0 -- -- 45
2019-09-18 14:00:00 28.1 12 Noroeste 25 Noroeste 0 -- -- 45
2019-09-18 13:00:00 27.5 13 Norte 22 Noroeste 0 -- -- 48
2019-09-18 12:00:00 26.1 10 Noroeste 18 Norte 0 -- -- 52
2019-09-18 11:00:00 23.9 5 Norte 14 Este 0 -- -- 57
2019-09-18 10:00:00 21.5 3 Norte 6 Este 0 -- -- 61
2019-09-18 09:00:00 17.4 0 Calma 10 Sudoeste 0 -- -- 73
2019-09-18 08:00:00 16.2 6 Sudoeste 10 Sudoeste 0 -- -- 69
2019-09-18 07:00:00 17 3 Oeste 13 Sudoeste 0 -- -- 66
2019-09-18 06:00:00 17.7 3 Sudoeste 15 Sudoeste 0 -- -- 66
2019-09-18 05:00:00 18.5 12 Sudoeste 17 Sudoeste 0 -- -- 63
2019-09-18 04:00:00 19.6 7 Sudoeste 14 Sudoeste 0 -- -- 60
2019-09-18 03:00:00 22.1 7 Oeste 13 Oeste 0 -- -- 53
2019-09-18 02:00:00 23.4 6 Sudoeste 22 Norte 0 -- -- 49
2019-09-18 01:00:00 24.6 11 Norte 37 Sudoeste 0 -- -- 45
2019-09-18 00:00:00 25 26 Sudoeste 49 Sudoeste 0 -- -- 45
2019-09-17 23:00:00 24 8 Sur 12 Sur 0 -- -- 50
2019-09-17 22:00:00 25.3 7 Sudeste 9 Sudeste 0 -- -- 48
2019-09-17 21:00:00 26.9 2 Sudoeste 9 Sudoeste 0 -- -- 45